Time;durP1;ratioP1;P1;durP2;ratioP2;P2;SDS_P1;SDS_P2;PMS_P1;PMS_P2;Temp;Humidity;BMP_temperature;BMP_pressure;BME280_temperature;BME280_humidity;BME280_pressure;Samples;Min_cycle;Max_cycle;Signal;HPM_P1;HPM_P2
2022/04/01 04:46:14;;;;;;;51.60;13.00;;;;;;;9.67;97.54;98441.00;1859908;75;21095;-45
2022/04/01 04:48:42;;;;;;;36.73;11.48;;;;;;;9.65;97.42;98416.69;1850224;77;21542;-36
2022/04/01 04:51:09;;;;;;;38.30;11.43;;;;;;;9.63;97.59;98415.88;1886644;75;21110;-44
2022/04/01 04:53:39;;;;;;;46.42;12.50;;;;;;;9.64;97.55;98425.88;1834362;77;21503;-44
2022/04/01 04:56:08;;;;;;;37.75;12.10;;;;;;;9.64;97.51;98442.84;1877919;75;21383;-44
2022/04/01 04:58:40;;;;;;;33.92;11.57;;;;;;;9.63;97.71;98433.30;1829168;75;20991;-44
2022/04/01 05:01:17;;;;;;;41.13;13.72;;;;;;;9.63;97.68;98435.92;1858711;75;21072;-43
2022/04/01 05:03:59;;;;;;;45.80;12.18;;;;;;;9.62;97.65;98424.58;1848951;75;21070;-37
2022/04/01 05:06:28;;;;;;;43.60;12.18;;;;;;;9.65;97.88;98406.70;1878863;75;21046;-38
2022/04/01 05:09:17;;;;;;;40.40;11.40;;;;;;;9.70;97.61;98423.95;1810020;78;21119;-44
2022/04/01 05:12:08;;;;;;;45.00;12.73;;;;;;;9.74;97.79;98420.38;1803197;77;21056;-44
2022/04/01 05:15:08;;;;;;;30.72;13.15;;;;;;;9.80;97.16;98415.45;1806066;78;21043;-44
2022/04/01 05:17:54;;;;;;;49.67;12.40;;;;;;;9.84;96.98;98403.99;1787262;78;21042;-37
2022/04/01 05:20:33;;;;;;;54.75;11.88;;;;;;;9.91;96.80;98397.70;1775924;78;21104;-36
2022/04/01 05:23:15;;;;;;;43.10;12.80;;;;;;;9.97;96.02;98414.54;1781654;79;21522;-43
2022/04/01 05:26:01;;;;;;;40.05;11.80;;;;;;;10.02;95.17;98422.23;1799018;79;21029;-43
2022/04/01 05:28:50;;;;;;;46.08;11.20;;;;;;;10.05;95.25;98445.22;1826817;77;21578;-43
2022/04/01 05:31:37;;;;;;;35.55;12.55;;;;;;;10.10;94.96;98423.75;1832072;77;21068;-43
2022/04/01 05:34:12;;;;;;;46.08;13.10;;;;;;;10.14;94.97;98410.98;1800600;78;21527;-36
2022/04/01 05:36:40;;;;;;;46.53;13.28;;;;;;;10.18;94.50;98403.92;1798717;78;21072;-37
2022/04/01 05:39:06;;;;;;;41.90;11.90;;;;;;;10.22;94.09;98409.48;1832563;77;21533;-39
2022/04/01 05:41:34;;;;;;;39.65;12.73;;;;;;;10.26;93.83;98411.57;1834278;78;21602;-45
2022/04/01 05:44:01;;;;;;;42.83;11.57;;;;;;;10.29;93.54;98394.51;1824112;77;21128;-38
2022/04/01 05:46:29;;;;;;;37.98;11.45;;;;;;;10.34;93.66;98410.92;1852817;75;21069;-37
2022/04/01 05:48:58;;;;;;;42.33;12.43;;;;;;;10.38;92.82;98404.71;1864117;75;21043;-38
2022/04/01 05:51:25;;;;;;;35.23;12.05;;;;;;;10.39;92.79;98385.05;1859542;75;21473;-37
2022/04/01 05:53:53;;;;;;;28.23;12.20;;;;;;;10.45;92.74;98387.08;1884490;74;21056;-37
2022/04/01 05:56:21;;;;;;;40.35;12.15;;;;;;;10.50;92.22;98385.19;1886674;75;21583;-38
2022/04/01 05:58:48;;;;;;;39.48;12.85;;;;;;;10.54;91.86;98388.95;1885015;74;21023;-38
2022/04/01 06:01:40;;;;;;;44.65;12.90;;;;;;;10.60;91.63;98386.15;1877803;74;21048;-38
2022/04/01 06:04:54;;;;;;;39.80;12.30;;;;;;;10.62;91.08;98372.59;1852618;75;20981;-37
2022/04/01 06:08:03;;;;;;;43.15;12.25;;;;;;;10.64;90.66;98386.47;1888153;75;21544;-38
2022/04/01 06:10:54;;;;;;;37.88;11.43;;;;;;;10.67;90.47;98386.84;1888014;74;21048;-37
2022/04/01 06:14:14;;;;;;;43.35;12.10;;;;;;;10.73;90.40;98403.66;1893716;74;21047;-37
2022/04/01 06:17:02;;;;;;;38.40;13.40;;;;;;;10.85;89.84;98399.81;1775899;79;21537;-44
2022/04/01 06:19:44;;;;;;;39.33;11.85;;;;;;;11.03;89.61;98396.61;1765186;80;21060;-43
2022/04/01 06:22:17;;;;;;;40.38;11.20;;;;;;;11.19;88.35;98376.89;1758474;80;21033;-35
2022/04/01 06:24:58;;;;;;;36.17;11.53;;;;;;;11.39;87.00;98387.15;1757456;80;21501;-43
2022/04/01 06:27:29;;;;;;;41.37;13.25;;;;;;;11.55;86.47;98362.16;1735460;80;21114;-45
2022/04/01 06:30:06;;;;;;;37.73;11.63;;;;;;;11.69;84.19;98351.19;1765893;80;21782;-38
2022/04/01 06:32:45;;;;;;;34.18;10.93;;;;;;;11.77;83.59;98365.32;1731042;80;21100;-36
2022/04/01 06:35:31;;;;;;;42.05;11.85;;;;;;;11.83;82.83;98372.99;1725756;81;21088;-43
2022/04/01 06:38:15;;;;;;;41.30;10.63;;;;;;;11.90;82.44;98367.50;1761109;79;21056;-42
2022/04/01 06:40:56;;;;;;;40.38;12.47;;;;;;;12.02;81.80;98354.87;1765295;79;21587;-43
2022/04/01 06:43:26;;;;;;;47.58;11.90;;;;;;;12.10;81.26;98347.11;1772138;80;20988;-44
2022/04/01 06:46:10;;;;;;;45.65;13.55;;;;;;;12.21;80.22;98349.34;1760364;80;21148;-45
2022/04/01 06:48:42;;;;;;;40.73;13.62;;;;;;;12.27;79.59;98341.70;1783815;78;21044;-45
2022/04/01 06:51:11;;;;;;;40.60;10.30;;;;;;;12.35;79.70;98344.45;1795127;78;21080;-44
2022/04/01 06:53:56;;;;;;;44.58;10.90;;;;;;;12.46;78.63;98349.25;1844520;75;21524;-43
2022/04/01 06:56:42;;;;;;;44.58;10.98;;;;;;;12.52;77.79;98355.58;1817527;75;21078;-36
2022/04/01 06:59:10;;;;;;;41.05;11.28;;;;;;;12.50;77.49;98358.27;1829023;75;21008;-36
2022/04/01 07:01:38;;;;;;;52.90;11.68;;;;;;;12.54;78.02;98379.14;1887111;75;21127;-44
2022/04/01 07:04:05;;;;;;;39.65;11.83;;;;;;;12.67;77.88;98369.42;1888950;74;21055;-44
2022/04/01 07:06:34;;;;;;;38.15;9.93;;;;;;;12.84;76.88;98371.39;1878259;76;21061;-44
2022/04/01 07:09:01;;;;;;;34.53;10.55;;;;;;;12.96;75.77;98367.42;1884333;74;21004;-37
2022/04/01 07:11:30;;;;;;;38.20;10.93;;;;;;;13.05;75.54;98356.10;1863861;75;21090;-44
2022/04/01 07:13:56;;;;;;;43.35;11.10;;;;;;;13.16;74.62;98371.85;1886737;74;21119;-44
2022/04/01 07:16:25;;;;;;;38.42;10.90;;;;;;;13.23;73.51;98371.59;1881033;74;21064;-37
2022/04/01 07:18:52;;;;;;;41.30;12.03;;;;;;;13.27;73.31;98360.02;1852623;75;21048;-44
2022/04/01 07:21:20;;;;;;;48.17;12.50;;;;;;;13.37;73.13;98357.03;1822477;77;21013;-37
2022/04/01 07:23:47;;;;;;;41.30;10.32;;;;;;;13.45;73.17;98338.73;1879278;75;21549;-44
2022/04/01 07:26:14;;;;;;;47.38;11.10;;;;;;;13.55;72.13;98342.64;1852048;75;21021;-44
2022/04/01 07:28:41;;;;;;;39.85;9.90;;;;;;;13.67;71.85;98346.52;1843723;75;21072;-36
2022/04/01 07:32:40;;;;;;;48.98;12.05;;;;;;;13.89;70.80;98363.98;1798096;79;28157;-36
2022/04/01 07:35:12;;;;;;;43.65;10.98;;;;;;;13.98;70.56;98360.97;1748626;81;21076;-36
2022/04/01 07:37:38;;;;;;;45.38;10.70;;;;;;;14.14;70.14;98358.02;1721448;83;21023;-37
2022/04/01 07:40:08;;;;;;;42.53;11.63;;;;;;;14.28;69.47;98343.80;1743220;82;21128;-37
2022/04/01 07:42:35;;;;;;;49.40;11.25;;;;;;;14.42;69.04;98348.88;1719510;82;21396;-36
2022/04/01 07:45:04;;;;;;;37.83;10.38;;;;;;;14.54;68.18;98337.34;1747426;82;21074;-36
2022/04/01 07:47:34;;;;;;;45.63;11.88;;;;;;;14.64;67.66;98332.52;1705429;82;21016;-37
2022/04/01 07:50:03;;;;;;;43.30;11.43;;;;;;;14.75;67.55;98333.33;1722569;82;21054;-37
2022/04/01 07:52:32;;;;;;;42.67;10.55;;;;;;;14.89;67.13;98322.97;1755695;82;21032;-37
2022/04/01 07:55:00;;;;;;;34.10;10.30;;;;;;;15.05;66.42;98321.30;1748174;82;21032;-36
2022/04/01 07:57:26;;;;;;;35.50;9.78;;;;;;;15.22;65.63;98313.03;1718172;82;21016;-36
2022/04/01 07:59:53;;;;;;;36.28;10.32;;;;;;;15.34;64.87;98307.98;1747650;80;21099;-37
2022/04/01 08:02:20;;;;;;;48.13;11.48;;;;;;;15.50;64.99;98311.17;1746544;82;21061;-37
2022/04/01 08:04:47;;;;;;;46.02;9.43;;;;;;;15.64;63.87;98303.42;1690796;83;21070;-38
2022/04/01 08:07:16;;;;;;;50.43;10.55;;;;;;;15.73;63.09;98305.59;1711662;82;21094;-44
2022/04/01 08:09:43;;;;;;;45.58;10.98;;;;;;;15.81;63.27;98279.67;1731086;82;21259;-37
2022/04/01 08:12:10;;;;;;;38.35;9.75;;;;;;;15.94;62.35;98293.92;1724274;81;21029;-44
2022/04/01 08:14:39;;;;;;;31.70;9.20;;;;;;;16.06;61.44;98283.19;1753764;82;21031;-44
2022/04/01 08:17:06;;;;;;;57.03;11.40;;;;;;;16.14;61.31;98288.88;1756003;82;21593;-44
2022/04/01 08:19:35;;;;;;;42.23;9.50;;;;;;;16.19;60.23;98301.83;1710445;81;20980;-44
2022/04/01 08:22:02;;;;;;;41.02;9.25;;;;;;;16.24;60.64;98293.20;1729927;82;21103;-44
2022/04/01 08:24:29;;;;;;;41.08;9.43;;;;;;;16.38;59.44;98297.24;1724869;82;21034;-37
2022/04/01 08:26:59;;;;;;;50.05;9.73;;;;;;;16.54;59.19;98295.09;1725881;82;21093;-44
2022/04/01 08:29:29;;;;;;;43.73;10.70;;;;;;;16.66;58.32;98303.64;1739764;82;21003;-44
2022/04/01 08:31:57;;;;;;;38.90;9.05;;;;;;;16.73;58.04;98275.50;1702894;82;21712;-37
2022/04/01 08:34:25;;;;;;;41.13;10.45;;;;;;;16.79;57.42;98272.13;1721024;82;21042;-37
2022/04/01 08:36:55;;;;;;;44.67;9.13;;;;;;;16.83;57.17;98291.69;1720775;82;21586;-44
2022/04/01 08:39:23;;;;;;;35.33;8.93;;;;;;;16.93;56.80;98271.73;1743419;82;21019;-37
2022/04/01 08:41:51;;;;;;;44.08;10.45;;;;;;;17.07;56.99;98270.92;1721227;82;21105;-37
2022/04/01 08:44:18;;;;;;;33.38;8.58;;;;;;;17.23;55.81;98282.30;1736960;82;21467;-37
2022/04/01 08:46:45;;;;;;;36.00;8.48;;;;;;;17.36;55.40;98263.92;1720600;82;21074;-37
2022/04/01 08:49:13;;;;;;;45.50;9.30;;;;;;;17.50;55.08;98262.61;1704605;83;21508;-37
2022/04/01 08:51:40;;;;;;;52.98;9.88;;;;;;;17.61;54.49;98264.61;1731849;82;22689;-43
2022/04/01 08:54:08;;;;;;;47.10;8.15;;;;;;;17.73;53.89;98261.25;1712926;82;21001;-45
2022/04/01 08:56:37;;;;;;;45.85;9.20;;;;;;;17.85;53.73;98237.16;1735469;82;21039;-44
2022/04/01 08:59:03;;;;;;;45.28;10.13;;;;;;;17.98;53.11;98234.16;1710217;82;22259;-37
2022/04/01 09:01:40;;;;;;;47.13;10.58;;;;;;;18.12;52.89;98227.14;1734919;82;21048;-37
2022/04/01 09:04:22;;;;;;;40.05;8.68;;;;;;;18.24;52.04;98237.78;1732514;82;21026;-39
2022/04/01 09:06:52;;;;;;;39.35;8.28;;;;;;;18.38;50.73;98240.02;1732946;82;20982;-37
2022/04/01 09:09:25;;;;;;;40.50;7.62;;;;;;;18.44;51.21;98249.77;1737595;82;21414;-38
2022/04/01 09:12:17;;;;;;;46.08;9.70;;;;;;;18.53;50.83;98241.21;1732691;82;21527;-37
2022/04/01 09:14:52;;;;;;;;;;;;;;;18.69;51.22;98240.26;1738644;82;21152;-37
2022/04/01 09:17:19;;;;;;;43.23;8.08;;;;;;;18.88;49.41;98247.36;1705138;82;20541;-37
2022/04/01 09:19:48;;;;;;;50.60;8.88;;;;;;;18.97;49.08;98237.48;1706581;82;21061;-37
2022/04/01 09:22:20;;;;;;;48.73;8.70;;;;;;;19.09;49.11;98243.77;1727377;82;21027;-36
2022/04/01 09:25:06;;;;;;;39.60;8.15;;;;;;;19.19;48.66;98240.84;1740808;82;21068;-36
2022/04/01 09:27:49;;;;;;;41.92;7.95;;;;;;;19.25;48.60;98240.47;1737087;82;20995;-36
2022/04/01 09:30:24;;;;;;;;;;;;;;;19.40;48.35;98231.92;1713406;82;21082;-37
2022/04/01 09:32:59;;;;;;;41.33;7.85;;;;;;;19.60;48.04;98237.23;1729469;82;20417;-37
2022/04/01 09:35:26;;;;;;;46.65;8.35;;;;;;;19.69;47.13;98239.71;1728705;82;21092;-37
2022/04/01 09:37:58;;;;;;;48.30;10.18;;;;;;;19.68;47.16;98230.06;1732371;82;21544;-37
2022/04/01 09:40:28;;;;;;;37.98;8.23;;;;;;;19.81;46.93;98232.22;1738619;81;21164;-36
2022/04/01 09:42:58;;;;;;;59.03;9.85;;;;;;;19.90;46.65;98227.61;1716068;82;21051;-36
2022/04/01 09:45:33;;;;;;;37.63;6.42;;;;;;;20.00;46.79;98227.30;1729348;82;21106;-45
2022/04/01 09:48:04;;;;;;;46.40;8.30;;;;;;;20.18;45.71;98223.84;1729198;82;21019;-44
2022/04/01 09:50:33;;;;;;;33.88;7.53;;;;;;;20.32;44.90;98234.30;1731928;82;21064;-44
2022/04/01 09:53:11;;;;;;;43.73;7.35;;;;;;;20.41;44.70;98212.88;1735328;82;21009;-44
2022/04/01 09:55:43;;;;;;;35.65;8.13;;;;;;;20.49;44.20;98241.08;1706537;82;21062;-44
2022/04/01 09:58:10;;;;;;;46.08;7.95;;;;;;;20.57;44.74;98216.13;1680419;82;21026;-44
2022/04/01 10:00:40;;;;;;;44.42;7.80;;;;;;;20.67;44.22;98205.67;1678827;84;21060;-44
2022/04/01 10:03:10;;;;;;;31.00;7.67;;;;;;;20.79;43.60;98206.09;1728503;82;21016;-36
2022/04/01 10:05:40;;;;;;;38.13;7.83;;;;;;;20.90;43.43;98200.81;1716200;82;21493;-37
2022/04/01 10:08:08;;;;;;;32.60;7.08;;;;;;;21.02;42.90;98195.55;1688310;82;20996;-45
2022/04/01 10:10:37;;;;;;;36.75;7.05;;;;;;;21.08;42.81;98194.59;1680188;84;21066;-45
2022/04/01 10:13:18;;;;;;;42.90;7.60;;;;;;;21.11;42.68;98195.70;1644606;84;21069;-43
2022/04/01 10:15:54;;;;;;;34.75;8.68;;;;;;;21.21;42.33;98207.80;1729551;82;21070;-39
2022/04/01 10:18:21;;;;;;;44.93;7.95;;;;;;;21.29;42.21;98192.60;1685338;83;21012;-36
2022/04/01 10:20:49;;;;;;;38.55;7.42;;;;;;;21.40;41.94;98201.48;1707198;84;21143;-43
2022/04/01 10:23:18;;;;;;;36.00;7.33;;;;;;;21.49;41.93;98201.23;1717824;82;21007;-36
2022/04/01 10:26:09;;;;;;;34.25;6.55;;;;;;;21.68;41.49;98201.48;1728796;82;21130;-43
2022/04/01 10:28:36;;;;;;;33.28;6.47;;;;;;;21.97;40.37;98194.34;1716151;82;21531;-43
2022/04/01 10:31:04;;;;;;;28.10;6.83;;;;;;;22.20;39.47;98200.03;1733634;82;21001;-43
2022/04/01 10:33:35;;;;;;;38.60;7.40;;;;;;;22.34;39.26;98185.63;1731351;82;21005;-44
2022/04/01 10:36:35;;;;;;;35.70;7.17;;;;;;;22.44;38.19;98187.03;1731068;81;21031;-44
2022/04/01 10:39:05;;;;;;;40.17;7.33;;;;;;;22.58;38.57;98180.94;1730061;82;21237;-44
2022/04/01 10:41:34;;;;;;;38.02;7.03;;;;;;;22.86;38.98;98156.00;1742089;81;21113;-44
2022/04/01 10:44:01;;;;;;;34.08;7.97;;;;;;;23.21;37.27;98168.20;1736183;82;21977;-44
2022/04/01 10:46:28;;;;;;;27.30;6.97;;;;;;;23.40;36.57;98174.97;1733224;82;21075;-44
2022/04/01 10:52:18;;;;;;;28.15;6.40;;;;;;;23.59;35.92;98155.55;1741896;82;21015;-44
2022/04/01 10:54:49;;;;;;;40.95;7.75;;;;;;;23.82;35.61;98152.23;1741881;82;21021;-37
2022/04/01 10:57:44;;;;;;;29.72;6.67;;;;;;;23.86;35.96;98149.16;1742109;82;21045;-37
2022/04/01 11:00:15;;;;;;;45.52;8.33;;;;;;;24.01;35.40;98143.46;1730353;82;21120;-37
2022/04/01 11:02:46;;;;;;;55.48;7.55;;;;;;;24.33;35.30;98130.71;1734537;82;21015;-37
2022/04/01 11:05:25;;;;;;;46.23;6.92;;;;;;;24.61;35.08;98142.44;1733159;81;21082;-37
2022/04/01 11:08:24;;;;;;;25.72;6.62;;;;;;;24.87;34.69;98129.83;1730089;82;21557;-37
2022/04/01 11:11:09;;;;;;;44.60;8.08;;;;;;;25.00;34.02;98137.58;1717465;82;21162;-37
2022/04/01 11:13:38;;;;;;;34.55;7.87;;;;;;;25.11;33.58;98128.94;1729033;82;21454;-37
2022/04/01 11:16:14;;;;;;;41.35;7.97;;;;;;;25.14;33.06;98129.12;1748382;82;21035;-37
2022/04/01 11:19:17;;;;;;;40.40;7.05;;;;;;;25.12;33.35;98127.09;1736595;82;21352;-45
2022/04/01 11:21:47;;;;;;;39.83;7.87;;;;;;;25.08;33.16;98127.03;1717453;82;21093;-45
2022/04/01 11:24:36;;;;;;;41.92;7.65;;;;;;;24.85;33.15;98117.94;1723972;81;21037;-36
2022/04/01 11:27:23;;;;;;;35.38;7.58;;;;;;;24.71;33.82;98101.02;1742128;82;21025;-44
2022/04/01 11:30:12;;;;;;;25.12;5.95;;;;;;;24.63;33.62;98099.03;1734776;82;21113;-37
2022/04/01 11:32:44;;;;;;;28.83;7.60;;;;;;;24.69;33.75;98101.13;1713191;82;21085;-44
2022/04/01 11:35:12;;;;;;;40.03;7.22;;;;;;;24.68;33.71;98107.47;1714152;82;21557;-37
2022/04/01 11:37:44;;;;;;;32.40;6.95;;;;;;;24.69;34.02;98105.64;1740614;82;21165;-37
2022/04/01 11:40:17;;;;;;;32.60;6.83;;;;;;;24.58;33.48;98101.28;1715962;82;21078;-44
2022/04/01 11:42:58;;;;;;;33.38;5.97;;;;;;;24.45;33.78;98102.06;1731426;82;21029;-37
2022/04/01 11:45:27;;;;;;;32.15;7.47;;;;;;;24.34;33.68;98111.52;1725568;82;21029;-36
2022/04/01 11:47:55;;;;;;;48.10;7.50;;;;;;;24.19;34.08;98106.24;1727388;82;21240;-37
2022/04/01 11:50:22;;;;;;;42.00;7.62;;;;;;;24.07;34.28;98102.36;1729733;82;20989;-44
2022/04/01 11:52:55;;;;;;;49.20;7.95;;;;;;;23.97;35.14;98097.48;1711026;82;21007;-37
2022/04/01 11:55:25;;;;;;;36.08;7.75;;;;;;;23.96;35.11;98101.63;1721363;82;21563;-37
2022/04/01 11:57:56;;;;;;;33.05;6.60;;;;;;;23.94;34.88;98098.23;1686479;83;21660;-37
